createdAt,value
2022-11-30T00:00:34.444Z,69.78
2022-11-30T00:05:38.902Z,69.72
2022-11-30T00:10:41.549Z,58.67
2022-11-30T00:15:43.301Z,67.70
2022-11-30T00:20:45.403Z,65.63
2022-11-30T00:25:47.143Z,74.13
2022-11-30T00:30:59.072Z,65.35
2022-11-30T00:36:10.627Z,65.75
2022-11-30T00:41:12.872Z,79.50
2022-11-30T00:46:14.926Z,83.45
2022-11-30T00:51:16.833Z,74.20
2022-11-30T00:56:18.590Z,77.82
2022-11-30T01:01:20.450Z,67.32
2022-11-30T01:06:22.218Z,56.60
2022-11-30T01:11:26.204Z,48.28
2022-11-30T01:16:31.275Z,50.67
2022-11-30T01:21:33.132Z,58.55
2022-11-30T01:26:34.990Z,58.08
2022-11-30T01:31:36.982Z,54.15
2022-11-30T01:36:39.027Z,53.97
2022-11-30T01:41:40.977Z,57.42
2022-11-30T01:47:01.806Z,63.78
2022-11-30T01:57:34.465Z,56.05
2022-11-30T02:03:04.807Z,61.00
2022-11-30T02:08:10.733Z,63.05
2022-11-30T02:13:34.195Z,54.50
2022-11-30T02:18:40.945Z,67.55
2022-11-30T02:24:03.598Z,66.30
2022-11-30T02:29:19.921Z,62.92
2022-11-30T02:34:23.719Z,54.20
2022-11-30T02:39:25.547Z,58.40
2022-11-30T02:44:28.321Z,58.92
2022-11-30T02:50:09.146Z,66.47
2022-11-30T02:55:14.762Z,66.55
2022-11-30T03:00:17.343Z,66.32
2022-11-30T03:05:19.359Z,68.97
2022-11-30T03:10:21.131Z,62.40
2022-11-30T03:15:23.498Z,60.13
2022-11-30T03:20:25.641Z,68.47
2022-11-30T03:25:27.985Z,58.63
2022-11-30T03:30:29.818Z,62.50
2022-11-30T03:35:31.550Z,56.67
2022-11-30T03:40:33.313Z,57.17
2022-11-30T03:45:35.141Z,59.90
2022-11-30T03:50:36.892Z,66.03
2022-11-30T03:55:38.600Z,66.70
2022-11-30T04:00:40.413Z,74.60
2022-11-30T04:05:43.043Z,72.18
2022-11-30T04:10:47.964Z,83.35
2022-11-30T04:15:51.682Z,77.13
2022-11-30T04:20:55.227Z,70.13
2022-11-30T04:25:58.012Z,61.78
2022-11-30T04:31:01.019Z,73.63
2022-11-30T04:36:05.576Z,61.97
2022-11-30T04:41:08.882Z,61.42
2022-11-30T04:46:11.144Z,56.50
2022-11-30T04:51:13.012Z,66.78
2022-11-30T04:56:14.874Z,59.17
2022-11-30T05:01:16.778Z,68.35
2022-11-30T05:06:18.633Z,64.78
2022-11-30T05:11:20.418Z,64.53
2022-11-30T05:16:22.494Z,72.95
2022-11-30T05:21:24.478Z,64.70
2022-11-30T05:26:26.263Z,68.88
2022-11-30T05:31:28.020Z,70.95
2022-11-30T05:36:29.778Z,67.03
2022-11-30T05:41:31.861Z,76.45
2022-11-30T05:46:38.264Z,71.95
2022-11-30T05:51:42.567Z,77.60
2022-11-30T05:56:44.458Z,64.13
2022-11-30T06:01:46.250Z,69.07
2022-11-30T06:06:49.630Z,66.70
2022-11-30T06:11:51.727Z,62.42
2022-11-30T06:16:53.459Z,63.75
2022-11-30T06:21:55.200Z,50.85
2022-11-30T06:26:56.998Z,67.43
2022-11-30T06:31:58.778Z,69.38
2022-11-30T06:37:00.538Z,73.97
2022-11-30T06:42:02.317Z,70.90
2022-11-30T06:47:04.084Z,70.28
2022-11-30T06:52:06.087Z,80.43
2022-11-30T06:57:07.789Z,81.90
2022-11-30T07:02:18.983Z,88.95
2022-11-30T07:07:21.455Z,94.20
2022-11-30T07:12:24.047Z,82.35
2022-11-30T07:17:25.843Z,87.97
2022-11-30T07:22:27.623Z,76.13
2022-11-30T07:27:29.464Z,78.88
2022-11-30T07:32:31.268Z,67.22
2022-11-30T07:37:33.012Z,86.43
2022-11-30T07:42:34.784Z,82.13
2022-11-30T07:47:36.692Z,88.95
2022-11-30T07:52:38.575Z,90.60
2022-11-30T07:57:40.352Z,81.70
2022-11-30T08:02:42.076Z,75.97
2022-11-30T08:07:46.015Z,83.68
2022-11-30T08:12:48.771Z,79.63
2022-11-30T08:17:54.343Z,74.22
2022-11-30T08:22:56.088Z,69.53
2022-11-30T08:27:57.841Z,80.65
2022-11-30T08:32:59.658Z,76.88
2022-11-30T08:38:01.403Z,73.68
2022-11-30T08:43:03.220Z,74.88
2022-11-30T08:48:05.322Z,76.13
2022-11-30T08:53:07.098Z,74.45
2022-11-30T08:58:09.014Z,84.90
2022-11-30T09:03:10.800Z,68.30
2022-11-30T09:08:12.750Z,68.20
2022-11-30T09:13:14.618Z,79.57
2022-11-30T09:18:16.413Z,68.88
2022-11-30T09:23:18.281Z,86.70
2022-11-30T09:28:19.998Z,81.75
2022-11-30T09:33:23.114Z,79.47
2022-11-30T09:38:31.224Z,68.75
2022-11-30T09:43:44.020Z,74.22
2022-11-30T09:49:11.285Z,80.20
2022-11-30T09:54:44.411Z,71.65
2022-11-30T09:59:56.836Z,70.28
2022-11-30T10:04:59.662Z,72.15
2022-11-30T10:10:32.946Z,66.15
2022-11-30T10:15:57.876Z,64.88
2022-11-30T10:21:32.898Z,68.57
2022-11-30T10:26:38.214Z,71.50
2022-11-30T10:31:41.765Z,66.70
2022-11-30T10:36:46.315Z,68.70
2022-11-30T10:41:56.919Z,69.50
2022-11-30T10:47:03.692Z,49.17
2022-11-30T10:52:09.547Z,68.22
2022-11-30T10:57:14.465Z,71.30
2022-11-30T11:02:35.223Z,69.78
2022-11-30T11:12:50.143Z,59.92
2022-11-30T11:17:53.801Z,63.55
2022-11-30T11:22:55.623Z,60.47
2022-11-30T11:28:04.557Z,61.35
2022-11-30T11:33:21.523Z,69.03
2022-11-30T11:38:29.611Z,64.53
2022-11-30T11:43:33.911Z,68.65
2022-11-30T11:48:40.426Z,61.15
2022-11-30T11:53:54.044Z,53.78
2022-11-30T11:59:05.025Z,56.47
2022-11-30T12:09:25.257Z,54.67
2022-11-30T12:14:27.822Z,65.70
2022-11-30T12:19:55.421Z,62.28
2022-11-30T12:25:18.257Z,50.97
2022-11-30T12:30:57.869Z,59.15
2022-11-30T12:36:18.830Z,59.88
2022-11-30T12:41:39.338Z,53.70
2022-11-30T12:46:47.024Z,54.90
2022-11-30T12:52:28.630Z,59.63
2022-11-30T12:57:38.168Z,49.95
2022-11-30T13:03:04.909Z,55.40
2022-11-30T13:08:26.078Z,48.75
2022-11-30T13:13:32.143Z,43.58
2022-11-30T13:18:34.826Z,46.92
2022-11-30T13:23:54.990Z,50.10
2022-11-30T13:29:22.846Z,47.30
2022-11-30T13:34:25.881Z,48.13
2022-11-30T13:39:29.422Z,57.10
2022-11-30T13:44:40.028Z,46.88
2022-11-30T13:49:42.329Z,39.47
2022-11-30T13:54:54.583Z,45.85
2022-11-30T13:59:58.084Z,42.70
2022-11-30T14:05:18.130Z,44.85
2022-11-30T14:10:39.398Z,44.50
2022-11-30T14:15:42.172Z,52.10
2022-11-30T14:21:13.076Z,46.40
2022-11-30T14:31:23.135Z,44.95
2022-11-30T14:36:32.655Z,53.13
2022-11-30T14:41:34.386Z,46.80
2022-11-30T14:46:36.417Z,45.65
2022-11-30T14:51:38.812Z,56.33
2022-11-30T14:56:49.688Z,49.13
2022-11-30T15:07:00.980Z,53.22
2022-11-30T15:12:02.777Z,53.08
2022-11-30T15:17:14.586Z,50.10
2022-11-30T15:22:22.997Z,53.72
2022-11-30T15:27:26.215Z,50.75
2022-11-30T15:32:29.159Z,52.78
2022-11-30T15:37:34.183Z,50.67
2022-11-30T15:42:41.557Z,46.40
2022-11-30T15:47:43.585Z,41.85
2022-11-30T15:52:49.865Z,54.60
2022-11-30T15:58:02.786Z,48.75
2022-11-30T16:03:12.989Z,51.50
2022-11-30T16:08:17.880Z,50.65
2022-11-30T16:13:22.416Z,45.88
2022-11-30T16:18:26.314Z,49.92
2022-11-30T16:23:28.839Z,53.33
2022-11-30T16:28:30.902Z,57.65
2022-11-30T16:33:32.861Z,51.05
2022-11-30T16:38:34.698Z,57.65
2022-11-30T16:43:40.065Z,51.42
2022-11-30T16:48:42.587Z,51.42
2022-11-30T16:53:45.303Z,57.33
2022-11-30T16:58:47.658Z,58.15
2022-11-30T17:03:51.568Z,52.08
2022-11-30T17:08:53.698Z,47.10
2022-11-30T17:13:55.937Z,58.28
2022-11-30T17:18:57.907Z,65.97
2022-11-30T17:23:59.702Z,58.60
2022-11-30T17:29:01.669Z,64.75
2022-11-30T17:34:04.167Z,68.10
2022-11-30T17:39:07.899Z,66.97
2022-11-30T17:44:10.578Z,78.47
2022-11-30T17:49:12.475Z,69.20
2022-11-30T17:54:14.555Z,80.38
2022-11-30T17:59:16.430Z,83.78
2022-11-30T18:04:19.027Z,89.75
2022-11-30T18:09:21.110Z,97.57
2022-11-30T18:14:23.083Z,92.90
2022-11-30T18:19:25.157Z,90.95
2022-11-30T18:24:27.156Z,74.82
2022-11-30T18:29:29.354Z,86.15
2022-11-30T18:34:31.649Z,87.60
2022-11-30T18:39:33.386Z,91.93
2022-11-30T18:44:35.212Z,91.32
2022-11-30T18:49:36.980Z,115.45
2022-11-30T18:54:39.111Z,104.40
2022-11-30T18:59:41.357Z,108.88
2022-11-30T19:04:44.289Z,91.25
2022-11-30T19:09:46.484Z,96.85
2022-11-30T19:14:49.307Z,102.75
2022-11-30T19:19:53.650Z,82.35
2022-11-30T19:24:55.482Z,79.45
2022-11-30T19:29:57.317Z,84.03
2022-11-30T19:34:59.125Z,97.68
2022-11-30T19:40:02.674Z,70.05
2022-11-30T19:45:06.346Z,56.05
2022-11-30T19:50:08.367Z,59.10
2022-11-30T19:55:10.592Z,51.00
2022-11-30T20:00:14.108Z,47.90
2022-11-30T20:05:18.383Z,51.03
2022-11-30T20:10:20.200Z,47.15
2022-11-30T20:15:22.052Z,52.95
2022-11-30T20:20:24.251Z,48.38
2022-11-30T20:25:27.375Z,49.65
2022-11-30T20:30:29.218Z,50.42
2022-11-30T20:35:31.093Z,49.50
2022-11-30T20:40:33.120Z,45.47
2022-11-30T20:45:36.129Z,46.47
2022-11-30T20:50:38.334Z,52.30
2022-11-30T20:55:40.100Z,53.08
2022-11-30T21:00:42.142Z,47.33
2022-11-30T21:05:43.910Z,46.30
2022-11-30T21:10:46.206Z,54.10
2022-11-30T21:15:48.074Z,54.85
2022-11-30T21:20:50.194Z,47.55
2022-11-30T21:25:51.938Z,46.45
2022-11-30T21:30:56.080Z,50.13
2022-11-30T21:35:59.147Z,52.33
2022-11-30T21:41:01.900Z,49.30
2022-11-30T21:46:16.267Z,53.13
2022-11-30T21:51:21.302Z,49.30
2022-11-30T21:56:28.603Z,47.17
2022-11-30T22:01:35.690Z,47.42
2022-11-30T22:06:38.876Z,48.95
2022-11-30T22:11:42.638Z,51.20
2022-11-30T22:16:44.929Z,49.67
2022-11-30T22:21:50.315Z,47.55
2022-11-30T22:26:52.327Z,45.40
2022-11-30T22:31:54.771Z,52.88
2022-11-30T22:36:57.183Z,42.85
2022-11-30T22:41:59.023Z,56.75
2022-11-30T22:47:00.887Z,56.03
2022-11-30T22:52:02.757Z,55.67
2022-11-30T22:57:04.651Z,53.63
2022-11-30T23:02:09.848Z,51.65
2022-11-30T23:07:11.598Z,51.30
2022-11-30T23:12:35.820Z,47.05
2022-11-30T23:17:37.609Z,52.72
2022-11-30T23:22:39.373Z,53.20
2022-11-30T23:27:41.220Z,52.58
2022-11-30T23:32:43.121Z,52.42
2022-11-30T23:37:45.045Z,49.80
2022-11-30T23:42:46.802Z,55.28
2022-11-30T23:47:48.567Z,53.85
2022-11-30T23:52:53.497Z,49.58
2022-11-30T23:57:55.237Z,60.47
